This is the latest recevied weather packets stored in our database for station/object KF0EZB. If no packets are shown the sender has not sent any weather packets the latest 10 day(s).
| Time | Temp. | Humidity | Pressure | Rain* | Wind** | Luminosity | Snow |
|---|---|---|---|---|---|---|---|
| 1777473107 | 8.33° C | 82% | 1022.3 hPa | 0 mm | - | 191 W/m² | - |
| 1777472804 | 8.33° C | 84% | 1022.5 hPa | 0 mm | - | 233 W/m² | - |
| 1777472500 | 7.78° C | 86% | 1022.5 hPa | 0 mm | - | 235 W/m² | - |
| 1777471893 | 7.78° C | 88% | 1022.1 hPa | 0 mm | - | 197 W/m² | - |
| 1777470983 | 7.22° C | 92% | 1022.4 hPa | 0 mm | - | 205 W/m² | - |
| 1777468253 | 5.56° C | 97% | 1021.9 hPa | 0 mm | - | 104 W/m² | - |
| 1777462779 | 2.78° C | 98% | 1021.2 hPa | 0 mm | - | 0 W/m² | - |
| 1777462474 | 2.78° C | 98% | 1021.2 hPa | 0 mm | - | 0 W/m² | - |
| 1777462171 | 2.78° C | 98% | 1021.3 hPa | 0 mm | - | 0 W/m² | - |
| 1777461867 | 2.78° C | 98% | 1021.2 hPa | 0 mm | - | 0 W/m² | - |
| 1777461564 | 2.78° C | 98% | 1021.3 hPa | 0 mm | - | 0 W/m² | - |
| 1777461260 | 2.78° C | 98% | 1021.3 hPa | 0 mm | - | 0 W/m² | - |
| 1777460955 | 3.33° C | 98% | 1021.2 hPa | 0 mm | - | 0 W/m² | - |
| 1777460651 | 3.33° C | 98% | 1021.3 hPa | 0 mm | - | 0 W/m² | - |
| 1777460346 | 3.33° C | 98% | 1021.3 hPa | 0 mm | - | 0 W/m² | - |
| 1777460043 | 3.33° C | 98% | 1021.3 hPa | 0 mm | - | 0 W/m² | - |
| 1777459135 | 3.33° C | 98% | 1021.5 hPa | 0 mm | - | 0 W/m² | - |
| 1777458832 | 3.33° C | 98% | 1021.6 hPa | 0 mm | - | 0 W/m² | - |
| 1777458528 | 3.33° C | 98% | 1021.5 hPa | 0 mm | - | 0 W/m² | - |
| 1777457920 | 3.33° C | 98% | 1021.2 hPa | 0 mm | - | 0 W/m² | - |
| 1777457617 | 3.33° C | 98% | 1021.2 hPa | 0 mm | - | 0 W/m² | - |
| 1777457311 | 3.89° C | 98% | 1021.2 hPa | 0 mm | - | 0 W/m² | - |
| 1777457007 | 3.89° C | 98% | 1021.2 hPa | 0 mm | - | 0 W/m² | - |
| 1777456703 | 3.89° C | 98% | 1021.2 hPa | 0 mm | - | 0 W/m² | - |
| 1777456403 | 3.89° C | 98% | 1021.5 hPa | 0 mm | - | 0 W/m² | - |
* Rain latest hour (hover to see other rain measurements)
** Current wind speed in m/s (hover to see current wind gust speed)